sensor_id;sensor_type;location;lat;lon;timestamp;P1;durP1;ratioP1;P2;durP2;ratioP2
77518;SDS011;66629;47.346;19.038;2023-04-03T00:01:04;8.77;;;7.30;;
77518;SDS011;66629;47.346;19.038;2023-04-03T00:03:30;9.98;;;7.15;;
77518;SDS011;66629;47.346;19.038;2023-04-03T00:05:55;8.32;;;6.50;;
77518;SDS011;66629;47.346;19.038;2023-04-03T00:08:21;10.05;;;7.50;;
77518;SDS011;66629;47.346;19.038;2023-04-03T00:10:47;9.63;;;7.30;;
77518;SDS011;66629;47.346;19.038;2023-04-03T00:13:12;8.32;;;6.68;;
77518;SDS011;66629;47.346;19.038;2023-04-03T00:15:39;8.65;;;6.50;;
77518;SDS011;66629;47.346;19.038;2023-04-03T00:18:05;7.80;;;6.18;;
77518;SDS011;66629;47.346;19.038;2023-04-03T00:20:31;10.25;;;7.63;;
77518;SDS011;66629;47.346;19.038;2023-04-03T00:22:57;10.63;;;6.15;;
77518;SDS011;66629;47.346;19.038;2023-04-03T00:25:22;8.85;;;6.45;;
77518;SDS011;66629;47.346;19.038;2023-04-03T00:27:48;9.10;;;6.60;;
77518;SDS011;66629;47.346;19.038;2023-04-03T00:30:15;9.00;;;6.72;;
77518;SDS011;66629;47.346;19.038;2023-04-03T00:32:41;10.63;;;6.85;;
77518;SDS011;66629;47.346;19.038;2023-04-03T00:35:07;7.10;;;6.00;;
77518;SDS011;66629;47.346;19.038;2023-04-03T00:37:34;8.70;;;5.78;;
77518;SDS011;66629;47.346;19.038;2023-04-03T00:39:59;8.35;;;6.10;;
77518;SDS011;66629;47.346;19.038;2023-04-03T00:42:25;8.45;;;6.25;;
77518;SDS011;66629;47.346;19.038;2023-04-03T00:47:21;7.75;;;6.32;;
77518;SDS011;66629;47.346;19.038;2023-04-03T00:49:48;7.50;;;5.47;;
77518;SDS011;66629;47.346;19.038;2023-04-03T00:52:15;8.73;;;6.15;;
77518;SDS011;66629;47.346;19.038;2023-04-03T00:54:42;8.40;;;5.85;;
77518;SDS011;66629;47.346;19.038;2023-04-03T00:57:11;8.30;;;5.60;;
77518;SDS011;66629;47.346;19.038;2023-04-03T00:59:42;7.38;;;5.18;;
77518;SDS011;66629;47.346;19.038;2023-04-03T01:02:10;8.30;;;6.50;;
77518;SDS011;66629;47.346;19.038;2023-04-03T01:04:37;7.00;;;5.30;;
77518;SDS011;66629;47.346;19.038;2023-04-03T01:07:17;8.60;;;5.22;;
77518;SDS011;66629;47.346;19.038;2023-04-03T01:09:46;7.70;;;5.50;;
77518;SDS011;66629;47.346;19.038;2023-04-03T01:12:19;7.20;;;5.00;;
77518;SDS011;66629;47.346;19.038;2023-04-03T01:14:56;6.00;;;4.93;;
77518;SDS011;66629;47.346;19.038;2023-04-03T01:25:21;6.90;;;5.10;;
77518;SDS011;66629;47.346;19.038;2023-04-03T01:27:46;7.75;;;5.15;;
77518;SDS011;66629;47.346;19.038;2023-04-03T01:30:12;5.78;;;4.65;;
77518;SDS011;66629;47.346;19.038;2023-04-03T01:32:41;6.75;;;4.90;;
77518;SDS011;66629;47.346;19.038;2023-04-03T01:35:07;6.25;;;4.45;;
77518;SDS011;66629;47.346;19.038;2023-04-03T01:37:33;7.65;;;5.70;;
77518;SDS011;66629;47.346;19.038;2023-04-03T01:39:59;6.50;;;4.63;;
77518;SDS011;66629;47.346;19.038;2023-04-03T01:42:24;8.10;;;5.28;;
77518;SDS011;66629;47.346;19.038;2023-04-03T01:44:50;6.22;;;4.80;;
77518;SDS011;66629;47.346;19.038;2023-04-03T01:47:15;6.53;;;4.60;;
77518;SDS011;66629;47.346;19.038;2023-04-03T01:49:41;5.63;;;4.40;;
77518;SDS011;66629;47.346;19.038;2023-04-03T01:52:06;5.40;;;4.47;;
77518;SDS011;66629;47.346;19.038;2023-04-03T01:54:32;5.72;;;4.13;;
77518;SDS011;66629;47.346;19.038;2023-04-03T01:56:57;5.75;;;4.13;;
77518;SDS011;66629;47.346;19.038;2023-04-03T01:59:23;6.57;;;4.60;;
77518;SDS011;66629;47.346;19.038;2023-04-03T02:01:48;5.97;;;4.38;;
77518;SDS011;66629;47.346;19.038;2023-04-03T02:04:14;6.03;;;4.63;;
77518;SDS011;66629;47.346;19.038;2023-04-03T02:06:40;7.00;;;4.90;;
77518;SDS011;66629;47.346;19.038;2023-04-03T02:09:05;5.53;;;4.20;;
77518;SDS011;66629;47.346;19.038;2023-04-03T02:11:31;6.85;;;4.10;;
77518;SDS011;66629;47.346;19.038;2023-04-03T02:13:57;6.70;;;4.53;;
77518;SDS011;66629;47.346;19.038;2023-04-03T02:16:23;5.65;;;4.20;;
77518;SDS011;66629;47.346;19.038;2023-04-03T02:18:48;5.03;;;3.67;;
77518;SDS011;66629;47.346;19.038;2023-04-03T02:21:14;5.57;;;4.03;;
77518;SDS011;66629;47.346;19.038;2023-04-03T02:23:40;3.92;;;3.22;;
77518;SDS011;66629;47.346;19.038;2023-04-03T02:26:07;6.13;;;3.85;;
77518;SDS011;66629;47.346;19.038;2023-04-03T02:28:36;6.20;;;4.07;;
77518;SDS011;66629;47.346;19.038;2023-04-03T02:31:03;5.00;;;3.67;;
77518;SDS011;66629;47.346;19.038;2023-04-03T02:33:30;5.50;;;4.10;;
77518;SDS011;66629;47.346;19.038;2023-04-03T02:35:55;5.38;;;4.00;;
77518;SDS011;66629;47.346;19.038;2023-04-03T02:38:21;4.40;;;3.30;;
77518;SDS011;66629;47.346;19.038;2023-04-03T02:40:47;6.25;;;4.07;;
77518;SDS011;66629;47.346;19.038;2023-04-03T02:43:13;5.22;;;3.92;;
77518;SDS011;66629;47.346;19.038;2023-04-03T02:45:39;6.22;;;4.68;;
77518;SDS011;66629;47.346;19.038;2023-04-03T02:48:04;4.97;;;3.80;;
77518;SDS011;66629;47.346;19.038;2023-04-03T02:50:30;6.07;;;4.20;;
77518;SDS011;66629;47.346;19.038;2023-04-03T02:52:55;5.78;;;4.13;;
77518;SDS011;66629;47.346;19.038;2023-04-03T02:55:21;5.38;;;4.35;;
77518;SDS011;66629;47.346;19.038;2023-04-03T02:57:46;7.25;;;4.40;;
77518;SDS011;66629;47.346;19.038;2023-04-03T03:00:12;6.60;;;4.10;;
77518;SDS011;66629;47.346;19.038;2023-04-03T03:02:38;4.82;;;3.75;;
77518;SDS011;66629;47.346;19.038;2023-04-03T03:05:03;6.55;;;4.38;;
77518;SDS011;66629;47.346;19.038;2023-04-03T03:07:29;6.10;;;4.47;;
77518;SDS011;66629;47.346;19.038;2023-04-03T03:09:55;5.97;;;4.60;;
77518;SDS011;66629;47.346;19.038;2023-04-03T03:12:20;6.90;;;4.85;;
77518;SDS011;66629;47.346;19.038;2023-04-03T03:14:47;5.22;;;4.22;;
77518;SDS011;66629;47.346;19.038;2023-04-03T03:17:13;6.55;;;4.38;;
77518;SDS011;66629;47.346;19.038;2023-04-03T03:19:38;5.70;;;4.60;;
77518;SDS011;66629;47.346;19.038;2023-04-03T03:22:04;6.47;;;4.78;;
77518;SDS011;66629;47.346;19.038;2023-04-03T03:24:29;7.25;;;4.60;;
77518;SDS011;66629;47.346;19.038;2023-04-03T03:26:55;6.55;;;5.15;;
77518;SDS011;66629;47.346;19.038;2023-04-03T03:29:20;6.35;;;4.68;;
77518;SDS011;66629;47.346;19.038;2023-04-03T03:31:46;6.82;;;4.85;;
77518;SDS011;66629;47.346;19.038;2023-04-03T03:34:12;6.63;;;4.50;;
77518;SDS011;66629;47.346;19.038;2023-04-03T03:36:37;6.63;;;5.15;;
77518;SDS011;66629;47.346;19.038;2023-04-03T03:39:03;6.03;;;4.90;;
77518;SDS011;66629;47.346;19.038;2023-04-03T03:41:29;6.00;;;4.68;;
77518;SDS011;66629;47.346;19.038;2023-04-03T03:43:54;6.95;;;5.10;;
77518;SDS011;66629;47.346;19.038;2023-04-03T03:46:20;8.45;;;5.85;;
77518;SDS011;66629;47.346;19.038;2023-04-03T03:48:45;6.88;;;5.00;;
77518;SDS011;66629;47.346;19.038;2023-04-03T03:51:11;7.13;;;5.60;;
77518;SDS011;66629;47.346;19.038;2023-04-03T03:53:36;5.72;;;4.43;;
77518;SDS011;66629;47.346;19.038;2023-04-03T03:56:02;6.38;;;4.70;;
77518;SDS011;66629;47.346;19.038;2023-04-03T03:58:29;6.40;;;4.85;;
77518;SDS011;66629;47.346;19.038;2023-04-03T04:00:55;6.20;;;4.72;;
77518;SDS011;66629;47.346;19.038;2023-04-03T04:03:20;6.05;;;4.70;;
77518;SDS011;66629;47.346;19.038;2023-04-03T04:05:46;6.00;;;4.90;;
77518;SDS011;66629;47.346;19.038;2023-04-03T04:08:11;6.97;;;5.00;;
77518;SDS011;66629;47.346;19.038;2023-04-03T04:10:37;6.13;;;5.20;;
77518;SDS011;66629;47.346;19.038;2023-04-03T04:13:03;6.28;;;4.43;;
77518;SDS011;66629;47.346;19.038;2023-04-03T04:15:28;6.38;;;4.70;;
77518;SDS011;66629;47.346;19.038;2023-04-03T04:17:54;6.82;;;5.13;;
77518;SDS011;66629;47.346;19.038;2023-04-03T04:20:20;6.32;;;4.65;;
77518;SDS011;66629;47.346;19.038;2023-04-03T04:22:46;7.50;;;5.03;;
77518;SDS011;66629;47.346;19.038;2023-04-03T04:25:11;6.95;;;4.78;;
77518;SDS011;66629;47.346;19.038;2023-04-03T04:27:37;6.22;;;4.85;;
77518;SDS011;66629;47.346;19.038;2023-04-03T04:30:03;9.52;;;4.65;;
77518;SDS011;66629;47.346;19.038;2023-04-03T04:32:29;7.45;;;5.30;;
77518;SDS011;66629;47.346;19.038;2023-04-03T04:34:55;6.03;;;5.15;;
77518;SDS011;66629;47.346;19.038;2023-04-03T04:37:20;7.65;;;5.15;;
77518;SDS011;66629;47.346;19.038;2023-04-03T04:39:46;6.38;;;5.13;;
77518;SDS011;66629;47.346;19.038;2023-04-03T04:42:11;5.90;;;4.68;;
77518;SDS011;66629;47.346;19.038;2023-04-03T04:44:38;6.63;;;5.57;;
77518;SDS011;66629;47.346;19.038;2023-04-03T04:47:04;6.93;;;4.80;;
77518;SDS011;66629;47.346;19.038;2023-04-03T04:49:30;6.90;;;5.50;;
77518;SDS011;66629;47.346;19.038;2023-04-03T04:51:55;7.03;;;5.22;;
77518;SDS011;66629;47.346;19.038;2023-04-03T04:54:21;11.13;;;5.50;;
77518;SDS011;66629;47.346;19.038;2023-04-03T04:56:46;6.25;;;4.43;;
77518;SDS011;66629;47.346;19.038;2023-04-03T04:59:11;6.32;;;4.75;;
77518;SDS011;66629;47.346;19.038;2023-04-03T05:01:37;8.13;;;5.05;;
77518;SDS011;66629;47.346;19.038;2023-04-03T05:04:02;5.97;;;4.40;;
77518;SDS011;66629;47.346;19.038;2023-04-03T05:06:28;10.13;;;4.72;;
77518;SDS011;66629;47.346;19.038;2023-04-03T05:08:55;7.95;;;4.47;;
77518;SDS011;66629;47.346;19.038;2023-04-03T05:11:21;10.95;;;7.15;;
77518;SDS011;66629;47.346;19.038;2023-04-03T05:13:46;12.05;;;6.68;;
77518;SDS011;66629;47.346;19.038;2023-04-03T05:16:12;10.07;;;6.38;;
77518;SDS011;66629;47.346;19.038;2023-04-03T05:18:37;6.97;;;4.82;;
77518;SDS011;66629;47.346;19.038;2023-04-03T05:21:03;6.72;;;4.97;;
77518;SDS011;66629;47.346;19.038;2023-04-03T05:23:28;6.72;;;4.45;;
77518;SDS011;66629;47.346;19.038;2023-04-03T05:25:53;9.10;;;4.63;;
77518;SDS011;66629;47.346;19.038;2023-04-03T05:28:19;8.00;;;5.75;;
77518;SDS011;66629;47.346;19.038;2023-04-03T05:30:44;7.47;;;4.72;;
77518;SDS011;66629;47.346;19.038;2023-04-03T05:33:10;7.63;;;5.20;;
77518;SDS011;66629;47.346;19.038;2023-04-03T05:35:36;7.15;;;4.82;;
77518;SDS011;66629;47.346;19.038;2023-04-03T05:38:05;7.10;;;4.50;;
77518;SDS011;66629;47.346;19.038;2023-04-03T05:40:31;6.65;;;5.18;;
77518;SDS011;66629;47.346;19.038;2023-04-03T05:42:56;6.63;;;4.75;;
77518;SDS011;66629;47.346;19.038;2023-04-03T05:45:22;7.10;;;5.75;;
77518;SDS011;66629;47.346;19.038;2023-04-03T05:47:47;7.25;;;4.40;;
77518;SDS011;66629;47.346;19.038;2023-04-03T05:50:12;5.72;;;4.53;;
77518;SDS011;66629;47.346;19.038;2023-04-03T05:52:40;5.40;;;4.30;;
77518;SDS011;66629;47.346;19.038;2023-04-03T05:55:09;5.65;;;3.95;;
77518;SDS011;66629;47.346;19.038;2023-04-03T05:57:34;5.63;;;4.13;;
77518;SDS011;66629;47.346;19.038;2023-04-03T06:00:00;7.65;;;4.45;;
77518;SDS011;66629;47.346;19.038;2023-04-03T06:02:25;7.00;;;4.80;;
77518;SDS011;66629;47.346;19.038;2023-04-03T06:04:52;8.07;;;4.65;;
77518;SDS011;66629;47.346;19.038;2023-04-03T06:07:18;8.93;;;5.18;;
77518;SDS011;66629;47.346;19.038;2023-04-03T06:09:49;8.25;;;5.85;;
77518;SDS011;66629;47.346;19.038;2023-04-03T06:12:16;7.57;;;4.50;;
77518;SDS011;66629;47.346;19.038;2023-04-03T06:14:42;10.05;;;6.38;;
77518;SDS011;66629;47.346;19.038;2023-04-03T06:17:07;9.70;;;6.97;;
77518;SDS011;66629;47.346;19.038;2023-04-03T06:19:34;6.90;;;5.18;;
77518;SDS011;66629;47.346;19.038;2023-04-03T06:22:00;6.30;;;4.28;;
77518;SDS011;66629;47.346;19.038;2023-04-03T06:24:26;5.47;;;4.22;;
77518;SDS011;66629;47.346;19.038;2023-04-03T06:26:52;6.20;;;4.05;;
77518;SDS011;66629;47.346;19.038;2023-04-03T06:29:18;5.47;;;3.88;;
77518;SDS011;66629;47.346;19.038;2023-04-03T06:31:44;5.30;;;4.18;;
77518;SDS011;66629;47.346;19.038;2023-04-03T06:34:10;7.20;;;4.40;;
77518;SDS011;66629;47.346;19.038;2023-04-03T06:36:36;5.20;;;3.85;;
77518;SDS011;66629;47.346;19.038;2023-04-03T06:39:02;5.70;;;3.60;;
77518;SDS011;66629;47.346;19.038;2023-04-03T06:41:28;5.43;;;3.70;;
77518;SDS011;66629;47.346;19.038;2023-04-03T06:43:54;6.07;;;4.28;;
77518;SDS011;66629;47.346;19.038;2023-04-03T06:46:21;6.30;;;5.00;;
77518;SDS011;66629;47.346;19.038;2023-04-03T06:48:47;6.40;;;4.80;;
77518;SDS011;66629;47.346;19.038;2023-04-03T06:51:17;5.72;;;4.20;;
77518;SDS011;66629;47.346;19.038;2023-04-03T06:53:47;7.07;;;5.07;;
77518;SDS011;66629;47.346;19.038;2023-04-03T06:56:14;6.03;;;4.28;;
77518;SDS011;66629;47.346;19.038;2023-04-03T06:58:40;7.25;;;4.38;;
77518;SDS011;66629;47.346;19.038;2023-04-03T07:01:08;7.28;;;4.68;;
77518;SDS011;66629;47.346;19.038;2023-04-03T07:03:38;6.07;;;4.35;;
77518;SDS011;66629;47.346;19.038;2023-04-03T07:06:04;5.50;;;4.35;;
77518;SDS011;66629;47.346;19.038;2023-04-03T07:08:30;5.80;;;4.15;;
77518;SDS011;66629;47.346;19.038;2023-04-03T07:10:57;4.93;;;3.60;;
77518;SDS011;66629;47.346;19.038;2023-04-03T07:13:22;5.25;;;3.83;;
77518;SDS011;66629;47.346;19.038;2023-04-03T07:15:47;6.10;;;3.50;;
77518;SDS011;66629;47.346;19.038;2023-04-03T07:18:13;5.32;;;3.80;;
77518;SDS011;66629;47.346;19.038;2023-04-03T07:20:39;5.95;;;3.88;;
77518;SDS011;66629;47.346;19.038;2023-04-03T07:23:05;5.65;;;3.88;;
77518;SDS011;66629;47.346;19.038;2023-04-03T07:25:30;6.43;;;4.22;;
77518;SDS011;66629;47.346;19.038;2023-04-03T07:27:57;5.75;;;4.13;;
77518;SDS011;66629;47.346;19.038;2023-04-03T07:30:22;4.88;;;3.53;;
77518;SDS011;66629;47.346;19.038;2023-04-03T07:32:48;4.13;;;3.08;;
77518;SDS011;66629;47.346;19.038;2023-04-03T07:35:13;4.28;;;3.33;;
77518;SDS011;66629;47.346;19.038;2023-04-03T07:37:40;5.43;;;3.55;;
77518;SDS011;66629;47.346;19.038;2023-04-03T07:40:06;5.75;;;3.58;;
77518;SDS011;66629;47.346;19.038;2023-04-03T07:42:32;7.15;;;4.32;;
77518;SDS011;66629;47.346;19.038;2023-04-03T07:44:57;6.50;;;4.18;;
77518;SDS011;66629;47.346;19.038;2023-04-03T07:47:23;6.28;;;3.70;;
77518;SDS011;66629;47.346;19.038;2023-04-03T07:49:48;5.07;;;3.80;;
77518;SDS011;66629;47.346;19.038;2023-04-03T07:52:14;6.20;;;4.00;;
77518;SDS011;66629;47.346;19.038;2023-04-03T07:54:40;5.00;;;3.50;;
77518;SDS011;66629;47.346;19.038;2023-04-03T07:57:07;5.78;;;3.58;;
77518;SDS011;66629;47.346;19.038;2023-04-03T07:59:32;6.15;;;3.70;;
77518;SDS011;66629;47.346;19.038;2023-04-03T08:01:57;8.10;;;4.28;;
77518;SDS011;66629;47.346;19.038;2023-04-03T08:04:23;4.95;;;3.58;;
77518;SDS011;66629;47.346;19.038;2023-04-03T08:06:49;8.55;;;3.60;;
77518;SDS011;66629;47.346;19.038;2023-04-03T08:09:15;7.47;;;3.00;;
77518;SDS011;66629;47.346;19.038;2023-04-03T08:11:41;6.88;;;2.85;;
77518;SDS011;66629;47.346;19.038;2023-04-03T08:14:07;5.07;;;3.20;;
77518;SDS011;66629;47.346;19.038;2023-04-03T08:16:32;6.32;;;2.83;;
77518;SDS011;66629;47.346;19.038;2023-04-03T08:18:58;9.18;;;6.30;;
77518;SDS011;66629;47.346;19.038;2023-04-03T08:21:24;8.80;;;5.57;;
77518;SDS011;66629;47.346;19.038;2023-04-03T08:23:50;5.07;;;3.42;;
77518;SDS011;66629;47.346;19.038;2023-04-03T08:26:17;7.55;;;4.97;;
77518;SDS011;66629;47.346;19.038;2023-04-03T08:28:45;5.43;;;3.20;;
77518;SDS011;66629;47.346;19.038;2023-04-03T08:31:13;5.07;;;3.05;;
77518;SDS011;66629;47.346;19.038;2023-04-03T08:33:40;5.20;;;3.00;;
77518;SDS011;66629;47.346;19.038;2023-04-03T08:36:07;5.93;;;3.05;;
77518;SDS011;66629;47.346;19.038;2023-04-03T08:38:40;4.50;;;2.72;;
77518;SDS011;66629;47.346;19.038;2023-04-03T08:46:42;5.53;;;3.08;;
77518;SDS011;66629;47.346;19.038;2023-04-03T08:49:31;5.65;;;3.25;;
77518;SDS011;66629;47.346;19.038;2023-04-03T08:52:45;3.47;;;2.50;;
77518;SDS011;66629;47.346;19.038;2023-04-03T08:55:24;3.88;;;2.65;;
77518;SDS011;66629;47.346;19.038;2023-04-03T09:00:50;4.60;;;2.63;;
77518;SDS011;66629;47.346;19.038;2023-04-03T09:03:21;3.83;;;3.03;;
77518;SDS011;66629;47.346;19.038;2023-04-03T09:05:48;4.68;;;3.00;;
77518;SDS011;66629;47.346;19.038;2023-04-03T09:17:30;3.95;;;2.65;;
77518;SDS011;66629;47.346;19.038;2023-04-03T09:20:20;3.65;;;2.38;;
77518;SDS011;66629;47.346;19.038;2023-04-03T09:23:12;4.88;;;2.50;;
77518;SDS011;66629;47.346;19.038;2023-04-03T09:25:39;5.97;;;2.97;;
77518;SDS011;66629;47.346;19.038;2023-04-03T09:28:05;4.47;;;2.92;;
77518;SDS011;66629;47.346;19.038;2023-04-03T09:30:35;12.02;;;4.88;;
77518;SDS011;66629;47.346;19.038;2023-04-03T09:33:02;5.63;;;3.35;;
77518;SDS011;66629;47.346;19.038;2023-04-03T09:35:31;9.13;;;4.25;;
77518;SDS011;66629;47.346;19.038;2023-04-03T09:40:42;4.50;;;2.75;;
77518;SDS011;66629;47.346;19.038;2023-04-03T09:45:42;5.45;;;3.00;;
77518;SDS011;66629;47.346;19.038;2023-04-03T09:48:15;4.90;;;3.00;;
77518;SDS011;66629;47.346;19.038;2023-04-03T09:55:56;5.60;;;2.50;;
77518;SDS011;66629;47.346;19.038;2023-04-03T10:00:57;3.30;;;2.63;;
77518;SDS011;66629;47.346;19.038;2023-04-03T10:03:28;4.97;;;2.75;;
77518;SDS011;66629;47.346;19.038;2023-04-03T10:05:57;3.03;;;2.38;;
77518;SDS011;66629;47.346;19.038;2023-04-03T10:08:33;2.88;;;2.40;;
77518;SDS011;66629;47.346;19.038;2023-04-03T10:11:11;5.03;;;2.78;;
77518;SDS011;66629;47.346;19.038;2023-04-03T10:13:42;3.45;;;2.40;;
77518;SDS011;66629;47.346;19.038;2023-04-03T10:16:17;3.20;;;2.20;;
77518;SDS011;66629;47.346;19.038;2023-04-03T10:18:49;8.48;;;4.90;;
77518;SDS011;66629;47.346;19.038;2023-04-03T10:21:48;9.93;;;5.00;;
77518;SDS011;66629;47.346;19.038;2023-04-03T10:30:04;4.10;;;2.25;;
77518;SDS011;66629;47.346;19.038;2023-04-03T10:32:44;3.53;;;2.63;;
77518;SDS011;66629;47.346;19.038;2023-04-03T10:38:09;3.67;;;2.30;;
77518;SDS011;66629;47.346;19.038;2023-04-03T10:51:47;5.55;;;4.03;;
77518;SDS011;66629;47.346;19.038;2023-04-03T10:54:34;4.15;;;3.75;;
77518;SDS011;66629;47.346;19.038;2023-04-03T10:57:05;3.05;;;2.35;;
77518;SDS011;66629;47.346;19.038;2023-04-03T11:04:48;2.80;;;2.28;;
77518;SDS011;66629;47.346;19.038;2023-04-03T11:07:24;2.72;;;2.13;;
77518;SDS011;66629;47.346;19.038;2023-04-03T11:09:57;4.30;;;2.45;;
77518;SDS011;66629;47.346;19.038;2023-04-03T11:12:28;3.22;;;2.10;;
77518;SDS011;66629;47.346;19.038;2023-04-03T11:15:03;3.72;;;2.63;;
77518;SDS011;66629;47.346;19.038;2023-04-03T11:25:25;5.50;;;2.50;;
77518;SDS011;66629;47.346;19.038;2023-04-03T11:27:57;5.05;;;2.80;;
77518;SDS011;66629;47.346;19.038;2023-04-03T11:36:07;3.60;;;2.50;;
77518;SDS011;66629;47.346;19.038;2023-04-03T11:38:38;2.40;;;1.90;;
77518;SDS011;66629;47.346;19.038;2023-04-03T11:41:08;4.55;;;2.33;;
77518;SDS011;66629;47.346;19.038;2023-04-03T11:43:40;4.13;;;1.95;;
77518;SDS011;66629;47.346;19.038;2023-04-03T11:46:08;8.60;;;3.88;;
77518;SDS011;66629;47.346;19.038;2023-04-03T11:51:30;3.75;;;2.17;;
77518;SDS011;66629;47.346;19.038;2023-04-03T11:53:53;6.18;;;3.35;;
77518;SDS011;66629;47.346;19.038;2023-04-03T12:01:42;2.50;;;2.00;;
77518;SDS011;66629;47.346;19.038;2023-04-03T12:04:11;4.68;;;2.25;;
77518;SDS011;66629;47.346;19.038;2023-04-03T12:11:52;3.20;;;2.20;;
77518;SDS011;66629;47.346;19.038;2023-04-03T12:14:18;2.45;;;1.90;;
77518;SDS011;66629;47.346;19.038;2023-04-03T12:16:44;4.72;;;1.95;;
77518;SDS011;66629;47.346;19.038;2023-04-03T12:43:43;5.65;;;3.53;;
77518;SDS011;66629;47.346;19.038;2023-04-03T12:47:07;10.10;;;4.80;;
77518;SDS011;66629;47.346;19.038;2023-04-03T12:52:17;5.85;;;3.58;;
77518;SDS011;66629;47.346;19.038;2023-04-03T12:54:49;3.25;;;2.33;;
77518;SDS011;66629;47.346;19.038;2023-04-03T12:59:52;6.82;;;3.40;;
77518;SDS011;66629;47.346;19.038;2023-04-03T13:02:28;8.02;;;5.65;;
77518;SDS011;66629;47.346;19.038;2023-04-03T13:04:56;7.85;;;4.50;;
77518;SDS011;66629;47.346;19.038;2023-04-03T13:07:31;4.50;;;2.58;;
77518;SDS011;66629;47.346;19.038;2023-04-03T13:12:31;8.98;;;4.25;;
77518;SDS011;66629;47.346;19.038;2023-04-03T13:14:59;3.60;;;2.25;;
77518;SDS011;66629;47.346;19.038;2023-04-03T13:17:41;3.35;;;1.90;;
77518;SDS011;66629;47.346;19.038;2023-04-03T13:22:59;2.92;;;1.60;;
77518;SDS011;66629;47.346;19.038;2023-04-03T13:25:30;3.25;;;1.65;;
77518;SDS011;66629;47.346;19.038;2023-04-03T13:27:59;4.05;;;2.10;;
77518;SDS011;66629;47.346;19.038;2023-04-03T13:32:59;2.92;;;1.95;;
77518;SDS011;66629;47.346;19.038;2023-04-03T13:35:32;1.70;;;1.55;;
77518;SDS011;66629;47.346;19.038;2023-04-03T13:38:02;1.42;;;1.33;;
77518;SDS011;66629;47.346;19.038;2023-04-03T13:41:34;2.25;;;1.50;;
77518;SDS011;66629;47.346;19.038;2023-04-03T13:43:50;2.08;;;1.45;;
77518;SDS011;66629;47.346;19.038;2023-04-03T13:48:42;4.10;;;1.50;;
77518;SDS011;66629;47.346;19.038;2023-04-03T13:53:43;2.80;;;1.70;;
77518;SDS011;66629;47.346;19.038;2023-04-03T13:59:05;1.90;;;1.50;;
77518;SDS011;66629;47.346;19.038;2023-04-03T14:01:49;2.83;;;1.60;;
77518;SDS011;66629;47.346;19.038;2023-04-03T14:04:26;3.83;;;1.77;;
77518;SDS011;66629;47.346;19.038;2023-04-03T14:06:54;3.65;;;1.67;;
77518;SDS011;66629;47.346;19.038;2023-04-03T14:09:20;2.92;;;1.67;;
77518;SDS011;66629;47.346;19.038;2023-04-03T14:11:48;5.00;;;2.30;;
77518;SDS011;66629;47.346;19.038;2023-04-03T14:14:24;2.53;;;1.90;;
77518;SDS011;66629;47.346;19.038;2023-04-03T14:16:56;2.22;;;1.70;;
77518;SDS011;66629;47.346;19.038;2023-04-03T14:19:25;3.13;;;1.98;;
77518;SDS011;66629;47.346;19.038;2023-04-03T14:21:55;4.00;;;2.17;;
77518;SDS011;66629;47.346;19.038;2023-04-03T14:24:22;12.10;;;5.47;;
77518;SDS011;66629;47.346;19.038;2023-04-03T14:26:49;8.70;;;4.05;;
77518;SDS011;66629;47.346;19.038;2023-04-03T14:29:16;6.07;;;2.88;;
77518;SDS011;66629;47.346;19.038;2023-04-03T14:31:42;11.18;;;4.50;;
77518;SDS011;66629;47.346;19.038;2023-04-03T14:34:10;10.10;;;3.80;;
77518;SDS011;66629;47.346;19.038;2023-04-03T14:36:36;4.28;;;2.35;;
77518;SDS011;66629;47.346;19.038;2023-04-03T14:39:03;2.33;;;1.60;;
77518;SDS011;66629;47.346;19.038;2023-04-03T14:41:29;2.88;;;1.60;;
77518;SDS011;66629;47.346;19.038;2023-04-03T14:43:55;3.45;;;1.85;;
77518;SDS011;66629;47.346;19.038;2023-04-03T14:46:26;4.25;;;2.83;;
77518;SDS011;66629;47.346;19.038;2023-04-03T14:48:53;5.50;;;2.40;;
77518;SDS011;66629;47.346;19.038;2023-04-03T14:51:18;4.72;;;2.65;;
77518;SDS011;66629;47.346;19.038;2023-04-03T14:53:44;3.28;;;1.83;;
77518;SDS011;66629;47.346;19.038;2023-04-03T14:56:11;20.88;;;11.00;;
77518;SDS011;66629;47.346;19.038;2023-04-03T14:58:46;24.17;;;13.65;;
77518;SDS011;66629;47.346;19.038;2023-04-03T15:01:15;12.85;;;8.35;;
77518;SDS011;66629;47.346;19.038;2023-04-03T15:03:41;5.43;;;3.20;;
77518;SDS011;66629;47.346;19.038;2023-04-03T15:06:08;3.42;;;2.13;;
77518;SDS011;66629;47.346;19.038;2023-04-03T15:08:35;4.68;;;2.80;;
77518;SDS011;66629;47.346;19.038;2023-04-03T15:11:00;6.43;;;2.67;;
77518;SDS011;66629;47.346;19.038;2023-04-03T15:13:26;5.53;;;3.55;;
77518;SDS011;66629;47.346;19.038;2023-04-03T15:15:51;5.50;;;3.28;;
77518;SDS011;66629;47.346;19.038;2023-04-03T15:18:24;6.65;;;3.42;;
77518;SDS011;66629;47.346;19.038;2023-04-03T15:20:51;7.47;;;3.88;;
77518;SDS011;66629;47.346;19.038;2023-04-03T15:23:20;5.15;;;2.90;;
77518;SDS011;66629;47.346;19.038;2023-04-03T15:25:51;4.18;;;2.95;;
77518;SDS011;66629;47.346;19.038;2023-04-03T15:31:06;4.57;;;2.88;;
77518;SDS011;66629;47.346;19.038;2023-04-03T15:33:32;8.25;;;3.80;;
77518;SDS011;66629;47.346;19.038;2023-04-03T15:35:59;7.90;;;3.53;;
77518;SDS011;66629;47.346;19.038;2023-04-03T15:38:25;8.63;;;4.88;;
77518;SDS011;66629;47.346;19.038;2023-04-03T15:40:50;11.40;;;4.80;;
77518;SDS011;66629;47.346;19.038;2023-04-03T15:43:15;12.30;;;6.72;;
77518;SDS011;66629;47.346;19.038;2023-04-03T15:45:41;12.45;;;5.40;;
77518;SDS011;66629;47.346;19.038;2023-04-03T15:48:09;4.55;;;2.80;;
77518;SDS011;66629;47.346;19.038;2023-04-03T15:50:35;5.78;;;3.53;;
77518;SDS011;66629;47.346;19.038;2023-04-03T15:53:02;5.03;;;3.30;;
77518;SDS011;66629;47.346;19.038;2023-04-03T15:55:32;4.13;;;2.80;;
77518;SDS011;66629;47.346;19.038;2023-04-03T15:57:59;6.57;;;2.83;;
77518;SDS011;66629;47.346;19.038;2023-04-03T16:00:26;4.07;;;2.60;;
77518;SDS011;66629;47.346;19.038;2023-04-03T16:02:53;5.13;;;3.15;;
77518;SDS011;66629;47.346;19.038;2023-04-03T16:05:22;4.50;;;2.70;;
77518;SDS011;66629;47.346;19.038;2023-04-03T16:07:47;4.25;;;2.80;;
77518;SDS011;66629;47.346;19.038;2023-04-03T16:10:14;4.82;;;2.75;;
77518;SDS011;66629;47.346;19.038;2023-04-03T16:12:40;4.10;;;2.50;;
77518;SDS011;66629;47.346;19.038;2023-04-03T16:15:06;4.20;;;2.50;;
77518;SDS011;66629;47.346;19.038;2023-04-03T16:17:33;5.88;;;3.28;;
77518;SDS011;66629;47.346;19.038;2023-04-03T16:19:59;5.75;;;3.67;;
77518;SDS011;66629;47.346;19.038;2023-04-03T16:22:25;7.03;;;3.28;;
77518;SDS011;66629;47.346;19.038;2023-04-03T16:24:52;6.15;;;2.70;;
77518;SDS011;66629;47.346;19.038;2023-04-03T16:27:18;7.50;;;3.00;;
77518;SDS011;66629;47.346;19.038;2023-04-03T16:29:43;4.57;;;2.80;;
77518;SDS011;66629;47.346;19.038;2023-04-03T16:32:09;8.50;;;3.10;;
77518;SDS011;66629;47.346;19.038;2023-04-03T16:34:34;8.95;;;4.53;;
77518;SDS011;66629;47.346;19.038;2023-04-03T16:37:00;19.98;;;8.55;;
77518;SDS011;66629;47.346;19.038;2023-04-03T16:39:26;10.45;;;4.47;;
77518;SDS011;66629;47.346;19.038;2023-04-03T16:41:51;14.68;;;6.55;;
77518;SDS011;66629;47.346;19.038;2023-04-03T16:44:17;6.82;;;3.47;;
77518;SDS011;66629;47.346;19.038;2023-04-03T16:46:42;33.88;;;18.70;;
77518;SDS011;66629;47.346;19.038;2023-04-03T16:49:08;17.13;;;12.57;;
77518;SDS011;66629;47.346;19.038;2023-04-03T16:51:33;25.90;;;16.45;;
77518;SDS011;66629;47.346;19.038;2023-04-03T16:53:59;13.00;;;7.68;;
77518;SDS011;66629;47.346;19.038;2023-04-03T16:56:25;9.95;;;6.07;;
77518;SDS011;66629;47.346;19.038;2023-04-03T16:58:53;8.95;;;5.85;;